Hewitt, Texas
Current Conditions -  °F | °C
As of 10:15 AM on Friday 24 Oct 2014 (Local Time) from KPWG Reporting Station
Clear Clear  
Wind Chill: 70°   Ceiling: Unl
Heat Index: 70°   Visibility: 10mi
Dew Point: 55°   Wind: 6mph
Humidity: 60%   Direction: 160°SSE
Pressure: 30.2"   Gusts: NA
Location:  31.47°N, 97.2°W
Report Text: KPWG 241515Z AUTO 16005KT 10SM CLR 21/13 A3020 RMK AO1
Loading
Personal Weather Stations






























Interactive Weather Map
Tropical Storm Tracking
New forecast layout! Learn more

10-Day Weather Forecast

Advertisements
Track Severe Weather on mobile